createdAt,value
2023-01-29T11:40:00.111Z,26.67
2023-01-29T11:43:34.999Z,28.02
2023-01-29T11:46:43.134Z,26.88
2023-01-29T11:49:58.005Z,28.65
2023-01-29T11:53:01.469Z,27.00
2023-01-29T11:56:15.692Z,27.52
2023-01-29T11:59:39.519Z,27.75
2023-01-29T12:02:49.204Z,26.27
2023-01-29T12:06:05.389Z,27.52
2023-01-29T12:09:17.524Z,28.58
2023-01-29T12:12:41.769Z,26.23
2023-01-29T12:15:44.030Z,27.00
2023-01-29T12:19:01.051Z,27.40
2023-01-29T12:22:06.404Z,26.35
2023-01-29T12:25:08.396Z,26.75
2023-01-29T12:28:16.421Z,26.52
2023-01-29T12:31:53.941Z,26.05
2023-01-29T12:35:59.914Z,25.95
2023-01-29T12:39:10.679Z,25.60
2023-01-29T12:50:36.435Z,25.33
2023-01-29T12:54:06.387Z,25.15
2023-01-29T12:57:25.225Z,24.67
2023-01-29T13:00:34.102Z,24.15
2023-01-29T13:03:59.788Z,24.98
2023-01-29T13:07:28.368Z,27.02
2023-01-29T13:10:37.417Z,24.63
2023-01-29T13:13:54.718Z,26.20
2023-01-29T13:17:15.767Z,24.85
2023-01-29T13:20:30.600Z,25.15
2023-01-29T13:23:38.112Z,22.77
2023-01-29T13:26:58.735Z,23.45
2023-01-29T13:30:01.849Z,22.80
2023-01-29T13:33:10.637Z,24.25
2023-01-29T13:36:20.574Z,22.13
2023-01-29T13:39:35.960Z,23.98
2023-01-29T13:42:49.527Z,22.38
2023-01-29T13:49:38.395Z,20.50
2023-01-29T13:52:44.795Z,20.77
2023-01-29T13:56:31.298Z,19.67
2023-01-29T13:59:52.032Z,20.02
2023-01-29T14:03:08.887Z,18.85
2023-01-29T14:06:10.767Z,19.67
2023-01-29T14:09:37.988Z,19.23
2023-01-29T14:23:37.172Z,19.15
2023-01-29T14:32:31.703Z,23.70
2023-01-29T14:35:34.081Z,19.85
2023-01-29T14:38:36.562Z,19.77
2023-01-29T14:41:43.187Z,19.60
2023-01-29T14:45:00.382Z,19.98
2023-01-29T14:49:10.600Z,20.67
2023-01-29T14:55:51.187Z,19.77
2023-01-29T14:58:59.180Z,20.25
2023-01-29T15:03:01.674Z,20.52
2023-01-29T15:20:31.324Z,22.17
2023-01-29T17:01:53.717Z,23.33
2023-01-29T17:15:59.947Z,20.13
2023-01-29T17:26:12.264Z,18.58
2023-01-29T17:29:28.727Z,18.55
2023-01-29T17:32:42.864Z,18.48
2023-01-29T17:35:50.443Z,19.20
2023-01-29T17:39:09.698Z,19.17
2023-01-29T17:42:15.182Z,19.48
2023-01-29T17:50:24.118Z,19.55
2023-01-29T17:53:46.427Z,19.50
2023-01-29T18:00:15.494Z,19.35
2023-01-29T18:11:10.224Z,18.85
2023-01-29T18:17:33.913Z,18.20
2023-01-29T18:59:53.367Z,19.38
2023-01-29T20:40:41.586Z,21.88
2023-01-29T20:43:44.657Z,22.15
2023-01-29T20:46:54.331Z,22.63
2023-01-29T20:49:57.636Z,21.77
2023-01-29T20:56:35.928Z,21.50
2023-01-29T20:59:45.174Z,21.55
2023-01-29T21:26:03.758Z,20.02
2023-01-29T21:32:29.272Z,21.60
2023-01-29T21:35:31.775Z,21.52
2023-01-29T21:38:45.829Z,21.90
2023-01-29T21:42:17.143Z,21.27
2023-01-29T21:45:21.951Z,20.35
2023-01-29T22:05:43.607Z,22.05
2023-01-29T22:09:00.595Z,21.20
2023-01-29T23:09:33.103Z,21.35
2023-01-29T23:38:35.163Z,21.73
